createdAt,value
2022-08-20T00:01:17.131Z,101250.94
2022-08-20T00:04:14.489Z,101247.00
2022-08-20T00:07:12.355Z,101238.44
2022-08-20T00:10:09.978Z,101229.69
2022-08-20T00:13:07.816Z,101240.75
2022-08-20T00:16:05.575Z,101233.25
2022-08-20T00:19:05.524Z,101223.75
2022-08-20T00:22:03.101Z,101237.59
2022-08-20T00:24:59.799Z,101233.50
2022-08-20T00:27:57.650Z,101244.22
2022-08-20T00:30:54.701Z,101239.72
2022-08-20T00:33:52.357Z,101250.00
2022-08-20T00:36:50.048Z,101252.75
2022-08-20T00:39:47.105Z,101256.53
2022-08-20T00:43:04.290Z,101255.41
2022-08-20T00:46:04.198Z,101255.94
2022-08-20T00:49:03.142Z,101249.19
2022-08-20T00:52:07.566Z,101267.88
2022-08-20T00:55:05.332Z,101260.88
2022-08-20T00:58:09.005Z,101263.97
2022-08-20T01:01:06.243Z,101252.88
2022-08-20T01:04:02.958Z,101264.44
2022-08-20T01:07:00.692Z,101271.19
2022-08-20T01:09:59.522Z,101259.63
2022-08-20T01:12:59.435Z,101268.91
2022-08-20T01:15:57.266Z,101271.44
2022-08-20T01:18:54.106Z,101277.66
2022-08-20T01:21:52.011Z,101269.19
2022-08-20T01:24:48.812Z,101275.16
2022-08-20T01:27:45.754Z,101278.03
2022-08-20T01:30:42.707Z,101279.69
2022-08-20T01:33:40.543Z,101276.41
2022-08-20T01:36:45.917Z,101268.94
2022-08-20T01:39:44.927Z,101257.41
2022-08-20T01:42:58.542Z,101268.16
2022-08-20T01:45:57.165Z,101269.59
2022-08-20T01:48:54.124Z,101269.38
2022-08-20T01:51:52.497Z,101267.09
2022-08-20T01:54:50.054Z,101273.53
2022-08-20T01:57:48.493Z,101277.25
2022-08-20T02:00:48.259Z,101274.41
2022-08-20T02:03:45.266Z,101273.34
2022-08-20T02:06:56.130Z,101277.34
2022-08-20T02:09:55.267Z,101266.47
2022-08-20T02:12:53.111Z,101263.47
2022-08-20T02:15:50.923Z,101276.16
2022-08-20T02:18:49.585Z,101265.53
2022-08-20T02:21:49.791Z,101281.31
2022-08-20T02:24:47.480Z,101277.06
2022-08-20T02:27:46.035Z,101285.34
2022-08-20T02:30:45.258Z,101281.38
2022-08-20T02:33:42.418Z,101279.31
2022-08-20T02:37:00.193Z,101283.41
2022-08-20T02:39:57.437Z,101291.22
2022-08-20T02:42:55.074Z,101297.00
2022-08-20T02:45:52.285Z,101294.53
2022-08-20T02:48:48.973Z,101295.34
2022-08-20T02:51:47.157Z,101288.91
2022-08-20T02:54:43.883Z,101280.91
2022-08-20T02:57:41.210Z,101289.22
2022-08-20T03:00:38.769Z,101287.31
2022-08-20T03:03:36.059Z,101288.94
2022-08-20T03:06:33.114Z,101284.34
2022-08-20T03:09:30.337Z,101289.69
2022-08-20T03:12:27.069Z,101288.34
2022-08-20T03:15:24.017Z,101292.97
2022-08-20T03:18:21.279Z,101298.13
2022-08-20T03:21:18.369Z,101294.41
2022-08-20T03:24:15.234Z,101299.88
2022-08-20T03:27:13.665Z,101293.09
2022-08-20T03:30:13.255Z,101290.56
2022-08-20T03:33:10.508Z,101290.91
2022-08-20T03:36:08.485Z,101288.03
2022-08-20T03:39:07.112Z,101285.97
2022-08-20T03:42:04.837Z,101278.22
2022-08-20T03:45:08.890Z,101277.72
2022-08-20T03:48:08.660Z,101280.69
2022-08-20T03:51:07.135Z,101283.56
2022-08-20T03:54:04.463Z,101290.63
2022-08-20T03:57:02.933Z,101298.84
2022-08-20T04:00:13.022Z,101303.69
2022-08-20T04:03:10.415Z,101299.47
2022-08-20T04:06:07.549Z,101305.03
2022-08-20T04:09:06.041Z,101301.03
2022-08-20T04:12:04.209Z,101300.09
2022-08-20T04:15:01.053Z,101305.94
2022-08-20T04:17:58.951Z,101303.53
2022-08-20T04:20:56.286Z,101310.03
2022-08-20T04:23:53.075Z,101304.66
2022-08-20T04:26:49.906Z,101302.59
2022-08-20T04:29:47.530Z,101302.31
2022-08-20T04:32:45.468Z,101306.69
2022-08-20T04:35:43.281Z,101302.59
2022-08-20T04:38:48.393Z,101311.63
2022-08-20T04:41:48.252Z,101305.16
2022-08-20T04:44:45.282Z,101306.38
2022-08-20T04:47:42.126Z,101310.53
2022-08-20T04:50:39.789Z,101313.09
2022-08-20T04:53:37.238Z,101312.28
2022-08-20T04:56:38.737Z,101317.63
2022-08-20T04:59:36.320Z,101321.72
2022-08-20T05:02:33.035Z,101322.41
2022-08-20T05:05:30.969Z,101329.13
2022-08-20T05:08:28.179Z,101331.28
2022-08-20T05:11:33.433Z,101334.59
2022-08-20T05:14:33.257Z,101340.31
2022-08-20T05:17:30.643Z,101345.19
2022-08-20T05:20:32.138Z,101345.56
2022-08-20T05:23:29.160Z,101338.94
2022-08-20T05:26:26.576Z,101352.06
2022-08-20T05:29:24.642Z,101346.41
2022-08-20T05:32:22.483Z,101349.72
2022-08-20T05:35:19.529Z,101350.88
2022-08-20T05:38:18.129Z,101351.19
2022-08-20T05:41:28.422Z,101351.63
2022-08-20T05:44:27.138Z,101354.38
2022-08-20T05:47:29.198Z,101355.66
2022-08-20T05:50:33.242Z,101361.41
2022-08-20T05:53:30.534Z,101360.56
2022-08-20T05:56:30.565Z,101355.66
2022-08-20T05:59:28.986Z,101361.41
2022-08-20T06:02:44.640Z,101357.44
2022-08-20T06:05:42.385Z,101368.97
2022-08-20T06:08:38.934Z,101358.81
2022-08-20T06:11:37.435Z,101362.97
2022-08-20T06:14:35.383Z,101354.75
2022-08-20T06:17:39.401Z,101355.13
2022-08-20T06:20:38.158Z,101362.53
2022-08-20T06:23:56.488Z,101351.59
2022-08-20T06:27:14.379Z,101356.59
2022-08-20T06:30:12.346Z,101356.53
2022-08-20T06:33:09.341Z,101356.88
2022-08-20T06:36:07.155Z,101358.53
2022-08-20T06:39:04.194Z,101359.81
2022-08-20T06:42:01.109Z,101361.88
2022-08-20T06:44:59.707Z,101357.00
2022-08-20T06:47:58.970Z,101354.16
2022-08-20T06:50:56.586Z,101355.38
2022-08-20T06:53:53.280Z,101357.09
2022-08-20T06:56:50.198Z,101351.41
2022-08-20T06:59:54.318Z,101347.34
2022-08-20T07:02:51.324Z,101354.63
2022-08-20T07:05:48.493Z,101357.56
2022-08-20T07:08:45.379Z,101355.09
2022-08-20T07:11:42.293Z,101372.72
2022-08-20T07:14:39.573Z,101369.00
2022-08-20T07:17:37.118Z,101377.56
2022-08-20T07:20:36.006Z,101371.88
2022-08-20T07:23:33.247Z,101377.59
2022-08-20T07:26:30.086Z,101385.44
2022-08-20T07:29:47.658Z,101386.31
2022-08-20T07:32:45.660Z,101380.19
2022-08-20T07:35:49.052Z,101382.19
2022-08-20T07:38:47.464Z,101390.00
2022-08-20T07:41:51.571Z,101386.69
2022-08-20T07:44:54.162Z,101386.66
2022-08-20T07:47:53.632Z,101393.97
2022-08-20T07:50:50.427Z,101393.06
2022-08-20T07:53:47.736Z,101397.09
2022-08-20T07:56:45.280Z,101402.81
2022-08-20T07:59:42.551Z,101406.78
2022-08-20T08:02:40.151Z,101394.16
2022-08-20T08:05:39.123Z,101388.09
2022-08-20T08:08:37.003Z,101394.50
2022-08-20T08:11:35.466Z,101397.75
2022-08-20T08:14:32.737Z,101390.97
2022-08-20T08:17:31.887Z,101387.41
2022-08-20T08:20:29.526Z,101394.88
2022-08-20T08:23:31.661Z,101401.84
2022-08-20T08:26:29.589Z,101405.53
2022-08-20T08:29:26.666Z,101408.81
2022-08-20T08:32:24.631Z,101402.28
2022-08-20T08:35:22.874Z,101415.41
2022-08-20T08:38:22.501Z,101410.13
2022-08-20T08:41:20.333Z,101419.22
2022-08-20T08:44:23.282Z,101436.78
2022-08-20T08:47:26.502Z,101438.75
2022-08-20T08:50:49.866Z,101452.31
2022-08-20T08:53:48.684Z,101445.63
2022-08-20T08:56:50.099Z,101450.50
2022-08-20T09:00:12.272Z,101450.38
2022-08-20T09:03:11.389Z,101443.91
2022-08-20T09:06:08.538Z,101449.41
2022-08-20T09:09:05.397Z,101448.31
2022-08-20T09:12:11.790Z,101449.81
2022-08-20T09:15:10.034Z,101438.13
2022-08-20T09:18:07.998Z,101444.94
2022-08-20T09:21:06.405Z,101438.75
2022-08-20T09:24:04.882Z,101444.41
2022-08-20T09:27:02.487Z,101440.91
2022-08-20T09:29:59.459Z,101447.75
2022-08-20T09:32:59.401Z,101435.66
2022-08-20T09:35:56.357Z,101438.84
2022-08-20T09:38:53.643Z,101436.66
2022-08-20T09:41:50.409Z,101431.59
2022-08-20T09:44:47.503Z,101436.38
2022-08-20T09:48:01.928Z,101426.41
2022-08-20T09:50:59.473Z,101430.50
2022-08-20T09:53:57.308Z,101432.16
2022-08-20T09:56:56.254Z,101433.88
2022-08-20T09:59:57.128Z,101437.09
2022-08-20T10:02:54.659Z,101424.59
2022-08-20T10:05:51.485Z,101440.28
2022-08-20T10:08:48.955Z,101441.69
2022-08-20T10:11:46.702Z,101447.47
2022-08-20T10:14:43.573Z,101436.53
2022-08-20T10:17:41.396Z,101440.88
2022-08-20T10:20:38.751Z,101451.13
2022-08-20T10:23:36.484Z,101446.34
2022-08-20T10:26:33.475Z,101451.25
2022-08-20T10:29:30.479Z,101445.75
2022-08-20T10:32:27.720Z,101448.50
2022-08-20T10:35:24.970Z,101449.88
2022-08-20T10:38:22.379Z,101447.41
2022-08-20T10:41:19.993Z,101442.94
2022-08-20T10:44:17.813Z,101445.56
2022-08-20T10:47:15.459Z,101441.38
2022-08-20T10:50:14.957Z,101442.22
2022-08-20T10:53:13.108Z,101447.06
2022-08-20T10:56:15.038Z,101439.53
2022-08-20T10:59:12.501Z,101445.13
2022-08-20T11:02:09.632Z,101453.75
2022-08-20T11:05:06.593Z,101448.03
2022-08-20T11:08:04.200Z,101449.00
2022-08-20T11:11:01.420Z,101449.72
2022-08-20T11:13:58.364Z,101450.25
2022-08-20T11:16:56.298Z,101447.63
2022-08-20T11:19:53.973Z,101446.81
2022-08-20T11:22:52.154Z,101453.13
2022-08-20T11:25:49.645Z,101456.19
2022-08-20T11:28:46.370Z,101457.84
2022-08-20T11:31:43.503Z,101459.47
2022-08-20T11:34:40.724Z,101459.41
2022-08-20T11:37:38.214Z,101455.66
2022-08-20T11:40:35.351Z,101463.69
2022-08-20T11:43:32.326Z,101450.06
2022-08-20T11:46:29.921Z,101455.84
2022-08-20T11:49:27.273Z,101453.31
2022-08-20T11:52:24.659Z,101447.50
2022-08-20T11:55:28.983Z,101458.34
2022-08-20T11:58:27.265Z,101453.09
2022-08-20T12:01:24.763Z,101442.78
2022-08-20T12:04:21.885Z,101440.72
2022-08-20T12:07:23.845Z,101436.66
2022-08-20T12:10:23.241Z,101436.41
2022-08-20T12:13:20.795Z,101437.22
2022-08-20T12:16:22.573Z,101444.84
2022-08-20T12:19:19.753Z,101450.50
2022-08-20T12:22:24.418Z,101448.09
2022-08-20T12:25:22.432Z,101444.31
2022-08-20T12:28:23.008Z,101450.22
2022-08-20T12:31:23.590Z,101448.28
2022-08-20T12:34:20.729Z,101453.47
2022-08-20T12:37:19.613Z,101449.97
2022-08-20T12:40:22.705Z,101455.09
2022-08-20T12:43:28.021Z,101452.97
2022-08-20T12:46:25.794Z,101458.22
2022-08-20T12:49:22.403Z,101445.56
2022-08-20T12:52:20.227Z,101454.59
2022-08-20T12:55:18.866Z,101454.28
2022-08-20T12:58:16.964Z,101451.16
2022-08-20T13:01:15.818Z,101454.75
2022-08-20T13:04:12.696Z,101453.13
2022-08-20T13:07:11.574Z,101457.69
2022-08-20T13:10:10.501Z,101459.25
2022-08-20T13:13:07.932Z,101457.81
2022-08-20T13:16:04.708Z,101456.69
2022-08-20T13:19:01.930Z,101450.91
2022-08-20T13:21:59.073Z,101438.34
2022-08-20T13:24:56.601Z,101437.03
2022-08-20T13:27:57.309Z,101443.88
2022-08-20T13:30:54.907Z,101443.50
2022-08-20T13:33:54.475Z,101447.03
2022-08-20T13:36:51.517Z,101451.03
2022-08-20T13:39:49.352Z,101438.09
2022-08-20T13:42:46.728Z,101444.81
2022-08-20T13:45:43.951Z,101437.75
2022-08-20T13:48:40.389Z,101439.94
2022-08-20T13:51:37.497Z,101447.22
2022-08-20T13:54:34.463Z,101443.41
2022-08-20T13:57:32.640Z,101438.66
2022-08-20T14:00:31.819Z,101432.88
2022-08-20T14:03:29.753Z,101432.06
2022-08-20T14:06:26.679Z,101439.16
2022-08-20T14:09:23.814Z,101428.69
2022-08-20T14:12:23.114Z,101435.13
2022-08-20T14:15:20.684Z,101430.06
2022-08-20T14:18:17.592Z,101432.78
2022-08-20T14:21:14.628Z,101434.34
2022-08-20T14:24:11.877Z,101439.53
2022-08-20T14:27:09.960Z,101430.59
2022-08-20T14:30:08.937Z,101420.63
2022-08-20T14:33:05.679Z,101416.81
2022-08-20T14:36:02.888Z,101429.91
2022-08-20T14:38:59.516Z,101430.91
2022-08-20T14:41:57.173Z,101428.31
2022-08-20T14:44:58.842Z,101438.94
2022-08-20T14:47:59.747Z,101430.53
2022-08-20T14:50:56.481Z,101424.94
2022-08-20T14:53:53.952Z,101417.69
2022-08-20T14:56:50.972Z,101427.22
2022-08-20T14:59:47.941Z,101422.31
2022-08-20T15:02:45.554Z,101423.59
2022-08-20T15:05:42.782Z,101429.66
2022-08-20T15:08:41.871Z,101430.34
2022-08-20T15:11:40.913Z,101433.16
2022-08-20T15:14:39.109Z,101441.47
2022-08-20T15:17:36.825Z,101431.03
2022-08-20T15:20:34.816Z,101440.94
2022-08-20T15:23:31.622Z,101442.34
2022-08-20T15:26:29.661Z,101443.19
2022-08-20T15:29:26.665Z,101437.53
2022-08-20T15:32:23.523Z,101439.03
2022-08-20T15:35:20.578Z,101444.94
2022-08-20T15:38:17.501Z,101445.34
2022-08-20T15:41:14.927Z,101453.88
2022-08-20T15:44:12.052Z,101449.19
2022-08-20T15:47:43.972Z,101454.69
2022-08-20T15:51:00.653Z,101460.34
2022-08-20T15:54:18.172Z,101459.19
2022-08-20T15:57:41.102Z,101454.31
2022-08-20T16:01:24.259Z,101455.06
2022-08-20T16:04:31.330Z,101457.75
2022-08-20T16:07:53.797Z,101451.09
2022-08-20T16:11:28.962Z,101455.94
2022-08-20T16:14:27.421Z,101461.06
2022-08-20T16:17:31.737Z,101461.06
2022-08-20T16:20:35.974Z,101463.78
2022-08-20T16:23:33.601Z,101456.38
2022-08-20T16:26:59.595Z,101457.91
2022-08-20T16:30:08.723Z,101459.69
2022-08-20T16:33:12.710Z,101462.47
2022-08-20T16:36:23.785Z,101469.06
2022-08-20T16:39:27.855Z,101470.53
2022-08-20T16:42:24.971Z,101469.00
2022-08-20T16:45:25.500Z,101469.19
2022-08-20T16:48:22.880Z,101468.75
2022-08-20T16:51:51.980Z,101472.06
2022-08-20T16:54:49.876Z,101466.44
2022-08-20T16:57:47.861Z,101478.75
2022-08-20T17:00:45.627Z,101474.47
2022-08-20T17:03:49.862Z,101480.56
2022-08-20T17:06:48.351Z,101476.69
2022-08-20T17:09:48.738Z,101485.75
2022-08-20T17:13:03.711Z,101488.06
2022-08-20T17:16:02.746Z,101478.34
2022-08-20T17:19:11.679Z,101480.03
2022-08-20T17:22:09.827Z,101483.75
2022-08-20T17:25:30.878Z,101480.03
2022-08-20T17:28:30.828Z,101486.84
2022-08-20T17:31:38.915Z,101489.59
2022-08-20T17:34:50.436Z,101489.56
2022-08-20T17:37:51.228Z,101489.88
2022-08-20T17:40:50.658Z,101492.06
2022-08-20T17:43:47.709Z,101494.91
2022-08-20T17:46:46.282Z,101489.44
2022-08-20T17:50:02.319Z,101495.66
2022-08-20T17:53:05.333Z,101496.66
2022-08-20T17:56:28.934Z,101499.16
2022-08-20T17:59:59.932Z,101492.25
2022-08-20T18:02:45.624Z,101489.81
2022-08-20T18:05:42.638Z,101496.78
2022-08-20T18:09:17.326Z,101490.91
2022-08-20T18:12:24.234Z,101502.91
2022-08-20T18:15:40.907Z,101507.88
2022-08-20T18:18:56.700Z,101507.47
2022-08-20T18:22:04.280Z,101512.34
2022-08-20T18:25:07.536Z,101514.31
2022-08-20T18:28:38.377Z,101519.84
2022-08-20T18:31:49.716Z,101518.41
2022-08-20T18:34:48.251Z,101529.34
2022-08-20T18:37:45.591Z,101524.84
2022-08-20T18:40:43.325Z,101534.75
2022-08-20T18:43:41.198Z,101526.84
2022-08-20T18:46:54.226Z,101532.97
2022-08-20T18:50:05.300Z,101534.28
2022-08-20T18:53:11.146Z,101527.69
2022-08-20T18:56:14.550Z,101536.53
2022-08-20T18:59:17.793Z,101531.00
2022-08-20T19:02:26.845Z,101527.16
2022-08-20T19:05:33.225Z,101534.38
2022-08-20T19:08:59.468Z,101529.28
2022-08-20T19:12:02.992Z,101541.66
2022-08-20T19:15:32.002Z,101542.81
2022-08-20T19:18:43.071Z,101544.09
2022-08-20T19:21:42.824Z,101541.53
2022-08-20T19:24:44.240Z,101541.13
2022-08-20T19:27:41.041Z,101554.19
2022-08-20T19:30:39.926Z,101552.72
2022-08-20T19:33:43.857Z,101537.03
2022-08-20T19:36:43.094Z,101534.09
2022-08-20T19:39:42.340Z,101531.78
2022-08-20T19:42:43.204Z,101538.94
2022-08-20T19:45:51.736Z,101542.66
2022-08-20T19:49:20.492Z,101544.28
2022-08-20T19:52:31.255Z,101538.53
2022-08-20T19:55:33.549Z,101543.50
2022-08-20T19:58:31.683Z,101540.69
2022-08-20T20:01:29.395Z,101537.03
2022-08-20T20:04:29.745Z,101532.13
2022-08-20T20:07:29.516Z,101530.50
2022-08-20T20:10:32.297Z,101523.94
2022-08-20T20:13:37.720Z,101533.41
2022-08-20T20:16:37.518Z,101530.06
2022-08-20T20:19:47.852Z,101542.38
2022-08-20T20:23:15.175Z,101548.16
2022-08-20T20:26:15.055Z,101539.09
2022-08-20T20:29:13.759Z,101538.69
2022-08-20T20:32:20.569Z,101541.97
2022-08-20T20:35:30.207Z,101544.47
2022-08-20T20:38:28.060Z,101532.94
2022-08-20T20:41:26.391Z,101539.47
2022-08-20T20:44:38.196Z,101550.16
2022-08-20T20:47:36.020Z,101548.53
2022-08-20T20:50:36.742Z,101548.56
2022-08-20T20:53:51.659Z,101549.38
2022-08-20T20:57:03.137Z,101539.50
2022-08-20T21:00:00.261Z,101532.16
2022-08-20T21:02:57.038Z,101524.34
2022-08-20T21:05:57.101Z,101523.06
2022-08-20T21:08:56.040Z,101513.94
2022-08-20T21:11:53.058Z,101519.28
2022-08-20T21:14:50.199Z,101525.44
2022-08-20T21:17:47.178Z,101523.69
2022-08-20T21:20:44.059Z,101526.97
2022-08-20T21:23:41.649Z,101531.91
2022-08-20T21:26:39.170Z,101537.66
2022-08-20T21:29:35.978Z,101530.72
2022-08-20T21:32:33.183Z,101530.69
2022-08-20T21:35:30.088Z,101536.44
2022-08-20T21:38:28.254Z,101538.44
2022-08-20T21:41:30.033Z,101541.25
2022-08-20T21:44:29.696Z,101536.47
2022-08-20T21:47:27.322Z,101532.66
2022-08-20T21:50:24.723Z,101534.81
2022-08-20T21:53:22.104Z,101539.84
2022-08-20T21:56:19.339Z,101540.81
2022-08-20T21:59:17.193Z,101528.63
2022-08-20T22:02:13.881Z,101545.19
2022-08-20T22:05:11.514Z,101545.19
2022-08-20T22:08:09.375Z,101540.53
2022-08-20T22:11:07.656Z,101535.19
2022-08-20T22:14:09.131Z,101526.59
2022-08-20T22:17:06.428Z,101525.25
2022-08-20T22:20:05.260Z,101534.13
2022-08-20T22:23:05.482Z,101532.16
2022-08-20T22:26:03.335Z,101523.41
2022-08-20T22:29:01.471Z,101523.41
2022-08-20T22:31:59.214Z,101536.56
2022-08-20T22:34:56.356Z,101522.34
2022-08-20T22:37:53.117Z,101530.44
2022-08-20T22:40:50.207Z,101530.41
2022-08-20T22:43:56.546Z,101529.22
2022-08-20T22:46:57.123Z,101542.44
2022-08-20T22:49:54.428Z,101549.09
2022-08-20T22:52:52.203Z,101550.91
2022-08-20T22:55:48.980Z,101533.28
2022-08-20T22:58:46.320Z,101533.00
2022-08-20T23:01:47.245Z,101511.84
2022-08-20T23:04:44.094Z,101523.03
2022-08-20T23:07:41.724Z,101541.81
2022-08-20T23:10:39.121Z,101528.50
2022-08-20T23:13:36.617Z,101516.63
2022-08-20T23:16:42.696Z,101527.53
2022-08-20T23:19:41.635Z,101521.09
2022-08-20T23:22:39.339Z,101534.38
2022-08-20T23:25:36.230Z,101528.50
2022-08-20T23:28:33.260Z,101521.59
2022-08-20T23:31:30.011Z,101509.47
2022-08-20T23:34:27.582Z,101501.13
2022-08-20T23:37:25.865Z,101504.75
2022-08-20T23:40:26.886Z,101503.38
2022-08-20T23:43:25.286Z,101504.03
2022-08-20T23:46:22.237Z,101500.53
2022-08-20T23:49:19.078Z,101497.72
2022-08-20T23:52:16.304Z,101491.34
2022-08-20T23:55:12.962Z,101502.50
2022-08-20T23:58:10.189Z,101518.22
